sensor_id;sensor_type;location;lat;lon;timestamp;P1;durP1;ratioP1;P2;durP2;ratioP2
2049;SDS011;8478;49.208;8.806;2023-11-19T00:02:08;8.30;;;7.63;;
2049;SDS011;8478;49.208;8.806;2023-11-19T00:04:37;7.83;;;7.10;;
2049;SDS011;8478;49.208;8.806;2023-11-19T00:07:06;7.90;;;7.10;;
2049;SDS011;8478;49.208;8.806;2023-11-19T00:09:36;7.10;;;6.50;;
2049;SDS011;8478;49.208;8.806;2023-11-19T00:12:05;10.27;;;9.33;;
2049;SDS011;8478;49.208;8.806;2023-11-19T00:14:32;10.63;;;9.67;;
2049;SDS011;8478;49.208;8.806;2023-11-19T00:16:59;10.77;;;9.60;;
2049;SDS011;8478;49.208;8.806;2023-11-19T00:19:25;9.27;;;8.43;;
2049;SDS011;8478;49.208;8.806;2023-11-19T00:21:51;10.00;;;9.00;;
2049;SDS011;8478;49.208;8.806;2023-11-19T00:24:17;9.83;;;9.03;;
2049;SDS011;8478;49.208;8.806;2023-11-19T00:26:43;10.60;;;9.70;;
2049;SDS011;8478;49.208;8.806;2023-11-19T00:29:09;9.10;;;8.20;;
2049;SDS011;8478;49.208;8.806;2023-11-19T00:31:35;8.50;;;7.80;;
2049;SDS011;8478;49.208;8.806;2023-11-19T00:34:01;8.77;;;7.90;;
2049;SDS011;8478;49.208;8.806;2023-11-19T00:36:27;9.27;;;8.47;;
2049;SDS011;8478;49.208;8.806;2023-11-19T00:38:53;7.97;;;7.17;;
2049;SDS011;8478;49.208;8.806;2023-11-19T00:41:19;9.10;;;8.30;;
2049;SDS011;8478;49.208;8.806;2023-11-19T00:43:45;8.43;;;7.63;;
2049;SDS011;8478;49.208;8.806;2023-11-19T00:46:11;8.93;;;8.03;;
2049;SDS011;8478;49.208;8.806;2023-11-19T00:48:37;7.83;;;7.13;;
2049;SDS011;8478;49.208;8.806;2023-11-19T00:51:03;6.83;;;6.23;;
2049;SDS011;8478;49.208;8.806;2023-11-19T00:53:29;7.77;;;7.20;;
2049;SDS011;8478;49.208;8.806;2023-11-19T00:55:55;7.60;;;6.90;;
2049;SDS011;8478;49.208;8.806;2023-11-19T00:58:22;8.23;;;6.77;;
2049;SDS011;8478;49.208;8.806;2023-11-19T01:00:47;6.73;;;6.23;;
2049;SDS011;8478;49.208;8.806;2023-11-19T01:03:13;6.80;;;6.30;;
2049;SDS011;8478;49.208;8.806;2023-11-19T01:05:41;7.60;;;7.00;;
2049;SDS011;8478;49.208;8.806;2023-11-19T01:08:09;7.50;;;6.90;;
2049;SDS011;8478;49.208;8.806;2023-11-19T01:10:38;7.73;;;6.93;;
2049;SDS011;8478;49.208;8.806;2023-11-19T01:13:04;7.00;;;6.40;;
2049;SDS011;8478;49.208;8.806;2023-11-19T01:15:33;7.60;;;7.00;;
2049;SDS011;8478;49.208;8.806;2023-11-19T01:17:59;6.73;;;6.13;;
2049;SDS011;8478;49.208;8.806;2023-11-19T01:20:27;6.10;;;5.60;;
2049;SDS011;8478;49.208;8.806;2023-11-19T01:22:52;6.17;;;5.57;;
2049;SDS011;8478;49.208;8.806;2023-11-19T01:25:18;5.30;;;4.80;;
2049;SDS011;8478;49.208;8.806;2023-11-19T01:27:47;6.33;;;5.73;;
2049;SDS011;8478;49.208;8.806;2023-11-19T01:30:13;5.57;;;5.07;;
2049;SDS011;8478;49.208;8.806;2023-11-19T01:32:39;5.97;;;5.10;;
2049;SDS011;8478;49.208;8.806;2023-11-19T01:35:05;5.57;;;5.07;;
2049;SDS011;8478;49.208;8.806;2023-11-19T01:37:31;5.43;;;5.03;;
2049;SDS011;8478;49.208;8.806;2023-11-19T01:39:57;5.60;;;5.10;;
2049;SDS011;8478;49.208;8.806;2023-11-19T01:42:23;4.73;;;4.33;;
2049;SDS011;8478;49.208;8.806;2023-11-19T01:44:57;4.90;;;4.50;;
2049;SDS011;8478;49.208;8.806;2023-11-19T01:47:29;5.07;;;4.73;;
2049;SDS011;8478;49.208;8.806;2023-11-19T01:49:56;4.60;;;4.20;;
2049;SDS011;8478;49.208;8.806;2023-11-19T01:52:22;4.73;;;4.30;;
2049;SDS011;8478;49.208;8.806;2023-11-19T01:54:53;8.70;;;4.83;;
2049;SDS011;8478;49.208;8.806;2023-11-19T01:57:21;5.13;;;4.30;;
2049;SDS011;8478;49.208;8.806;2023-11-19T01:59:49;4.67;;;4.27;;
2049;SDS011;8478;49.208;8.806;2023-11-19T02:02:18;7.10;;;4.33;;
2049;SDS011;8478;49.208;8.806;2023-11-19T02:04:46;4.70;;;4.20;;
2049;SDS011;8478;49.208;8.806;2023-11-19T02:07:13;3.80;;;3.50;;
2049;SDS011;8478;49.208;8.806;2023-11-19T02:09:42;3.60;;;3.40;;
2049;SDS011;8478;49.208;8.806;2023-11-19T02:12:09;4.40;;;4.00;;
2049;SDS011;8478;49.208;8.806;2023-11-19T02:14:38;4.50;;;3.27;;
2049;SDS011;8478;49.208;8.806;2023-11-19T02:17:08;3.20;;;3.00;;
2049;SDS011;8478;49.208;8.806;2023-11-19T02:19:51;3.67;;;3.37;;
2049;SDS011;8478;49.208;8.806;2023-11-19T02:22:17;3.07;;;2.87;;
2049;SDS011;8478;49.208;8.806;2023-11-19T02:24:43;3.53;;;2.60;;
2049;SDS011;8478;49.208;8.806;2023-11-19T02:27:15;3.30;;;2.77;;
2049;SDS011;8478;49.208;8.806;2023-11-19T02:30:01;2.50;;;2.30;;
2049;SDS011;8478;49.208;8.806;2023-11-19T02:32:31;2.50;;;2.20;;
2049;SDS011;8478;49.208;8.806;2023-11-19T02:34:57;2.03;;;1.93;;
2049;SDS011;8478;49.208;8.806;2023-11-19T02:37:22;2.20;;;2.00;;
2049;SDS011;8478;49.208;8.806;2023-11-19T02:39:48;3.50;;;2.10;;
2049;SDS011;8478;49.208;8.806;2023-11-19T02:42:14;2.00;;;1.90;;
2049;SDS011;8478;49.208;8.806;2023-11-19T02:44:43;2.60;;;1.93;;
2049;SDS011;8478;49.208;8.806;2023-11-19T02:47:10;2.03;;;1.60;;
2049;SDS011;8478;49.208;8.806;2023-11-19T02:49:35;2.00;;;1.87;;
2049;SDS011;8478;49.208;8.806;2023-11-19T02:52:02;2.27;;;1.70;;
2049;SDS011;8478;49.208;8.806;2023-11-19T02:54:30;1.83;;;1.73;;
2049;SDS011;8478;49.208;8.806;2023-11-19T02:57:00;3.60;;;1.80;;
2049;SDS011;8478;49.208;8.806;2023-11-19T02:59:28;2.30;;;1.90;;
2049;SDS011;8478;49.208;8.806;2023-11-19T03:02:04;1.70;;;1.60;;
2049;SDS011;8478;49.208;8.806;2023-11-19T03:04:36;1.83;;;1.47;;
2049;SDS011;8478;49.208;8.806;2023-11-19T03:07:05;1.80;;;1.70;;
2049;SDS011;8478;49.208;8.806;2023-11-19T03:09:38;1.70;;;1.60;;
2049;SDS011;8478;49.208;8.806;2023-11-19T03:12:05;1.70;;;1.60;;
2049;SDS011;8478;49.208;8.806;2023-11-19T03:14:33;1.80;;;1.67;;
2049;SDS011;8478;49.208;8.806;2023-11-19T03:17:02;2.23;;;1.60;;
2049;SDS011;8478;49.208;8.806;2023-11-19T03:19:30;2.20;;;1.40;;
2049;SDS011;8478;49.208;8.806;2023-11-19T03:21:58;1.80;;;1.70;;
2049;SDS011;8478;49.208;8.806;2023-11-19T03:24:24;1.50;;;1.40;;
2049;SDS011;8478;49.208;8.806;2023-11-19T03:26:50;1.53;;;1.43;;
2049;SDS011;8478;49.208;8.806;2023-11-19T03:29:15;1.50;;;1.30;;
2049;SDS011;8478;49.208;8.806;2023-11-19T03:31:42;1.60;;;1.50;;
2049;SDS011;8478;49.208;8.806;2023-11-19T03:34:08;1.57;;;1.30;;
2049;SDS011;8478;49.208;8.806;2023-11-19T03:36:34;1.60;;;1.50;;
2049;SDS011;8478;49.208;8.806;2023-11-19T03:38:59;1.70;;;1.60;;
2049;SDS011;8478;49.208;8.806;2023-11-19T03:41:25;1.80;;;1.70;;
2049;SDS011;8478;49.208;8.806;2023-11-19T03:43:51;1.77;;;1.47;;
2049;SDS011;8478;49.208;8.806;2023-11-19T03:46:19;3.13;;;1.50;;
2049;SDS011;8478;49.208;8.806;2023-11-19T03:48:49;1.60;;;1.50;;
2049;SDS011;8478;49.208;8.806;2023-11-19T03:51:15;1.47;;;1.37;;
2049;SDS011;8478;49.208;8.806;2023-11-19T03:53:43;2.00;;;1.80;;
2049;SDS011;8478;49.208;8.806;2023-11-19T03:56:11;1.50;;;1.40;;
2049;SDS011;8478;49.208;8.806;2023-11-19T03:58:38;2.17;;;1.40;;
2049;SDS011;8478;49.208;8.806;2023-11-19T04:01:13;1.50;;;1.40;;
2049;SDS011;8478;49.208;8.806;2023-11-19T04:03:41;1.57;;;1.47;;
2049;SDS011;8478;49.208;8.806;2023-11-19T04:06:07;1.83;;;1.50;;
2049;SDS011;8478;49.208;8.806;2023-11-19T04:08:33;1.77;;;1.67;;
2049;SDS011;8478;49.208;8.806;2023-11-19T04:11:00;1.67;;;1.57;;
2049;SDS011;8478;49.208;8.806;2023-11-19T04:13:26;1.70;;;1.60;;
2049;SDS011;8478;49.208;8.806;2023-11-19T04:15:51;2.33;;;1.47;;
2049;SDS011;8478;49.208;8.806;2023-11-19T04:18:17;1.37;;;1.27;;
2049;SDS011;8478;49.208;8.806;2023-11-19T04:20:43;1.70;;;1.60;;
2049;SDS011;8478;49.208;8.806;2023-11-19T04:23:09;1.50;;;1.40;;
2049;SDS011;8478;49.208;8.806;2023-11-19T04:25:37;1.40;;;1.30;;
2049;SDS011;8478;49.208;8.806;2023-11-19T04:28:03;1.90;;;1.50;;
2049;SDS011;8478;49.208;8.806;2023-11-19T04:30:29;1.50;;;1.40;;
2049;SDS011;8478;49.208;8.806;2023-11-19T04:32:57;1.93;;;1.60;;
2049;SDS011;8478;49.208;8.806;2023-11-19T04:35:23;1.60;;;1.50;;
2049;SDS011;8478;49.208;8.806;2023-11-19T04:37:48;1.70;;;1.60;;
2049;SDS011;8478;49.208;8.806;2023-11-19T04:40:14;1.70;;;1.60;;
2049;SDS011;8478;49.208;8.806;2023-11-19T04:42:43;1.60;;;1.50;;
2049;SDS011;8478;49.208;8.806;2023-11-19T04:45:10;1.50;;;1.40;;
2049;SDS011;8478;49.208;8.806;2023-11-19T04:47:38;1.83;;;1.60;;
2049;SDS011;8478;49.208;8.806;2023-11-19T04:50:07;1.60;;;1.50;;
2049;SDS011;8478;49.208;8.806;2023-11-19T04:52:39;3.83;;;1.60;;
2049;SDS011;8478;49.208;8.806;2023-11-19T04:55:05;1.50;;;1.40;;
2049;SDS011;8478;49.208;8.806;2023-11-19T04:57:31;1.80;;;1.70;;
2049;SDS011;8478;49.208;8.806;2023-11-19T04:59:57;2.27;;;2.07;;
2049;SDS011;8478;49.208;8.806;2023-11-19T05:02:23;1.50;;;1.40;;
2049;SDS011;8478;49.208;8.806;2023-11-19T05:04:49;1.70;;;1.60;;
2049;SDS011;8478;49.208;8.806;2023-11-19T05:07:15;1.73;;;1.53;;
2049;SDS011;8478;49.208;8.806;2023-11-19T05:09:41;1.70;;;1.60;;
2049;SDS011;8478;49.208;8.806;2023-11-19T05:12:08;1.70;;;1.60;;
2049;SDS011;8478;49.208;8.806;2023-11-19T05:14:37;1.60;;;1.50;;
2049;SDS011;8478;49.208;8.806;2023-11-19T05:17:03;1.50;;;1.40;;
2049;SDS011;8478;49.208;8.806;2023-11-19T05:19:29;1.73;;;1.63;;
2049;SDS011;8478;49.208;8.806;2023-11-19T05:21:54;1.50;;;1.40;;
2049;SDS011;8478;49.208;8.806;2023-11-19T05:24:20;1.67;;;1.57;;
2049;SDS011;8478;49.208;8.806;2023-11-19T05:26:46;3.37;;;1.87;;
2049;SDS011;8478;49.208;8.806;2023-11-19T05:29:12;1.60;;;1.50;;
2049;SDS011;8478;49.208;8.806;2023-11-19T05:31:40;1.70;;;1.60;;
2049;SDS011;8478;49.208;8.806;2023-11-19T05:34:06;4.90;;;2.00;;
2049;SDS011;8478;49.208;8.806;2023-11-19T05:36:32;1.80;;;1.70;;
2049;SDS011;8478;49.208;8.806;2023-11-19T05:38:58;2.10;;;1.90;;
2049;SDS011;8478;49.208;8.806;2023-11-19T05:41:23;1.97;;;1.80;;
2049;SDS011;8478;49.208;8.806;2023-11-19T05:43:49;2.10;;;1.90;;
2049;SDS011;8478;49.208;8.806;2023-11-19T05:46:15;2.37;;;2.07;;
2049;SDS011;8478;49.208;8.806;2023-11-19T05:48:41;1.80;;;1.70;;
2049;SDS011;8478;49.208;8.806;2023-11-19T05:51:07;2.10;;;1.90;;
2049;SDS011;8478;49.208;8.806;2023-11-19T05:53:33;1.80;;;1.70;;
2049;SDS011;8478;49.208;8.806;2023-11-19T05:55:59;2.23;;;2.10;;
2049;SDS011;8478;49.208;8.806;2023-11-19T05:58:28;2.03;;;1.90;;
2049;SDS011;8478;49.208;8.806;2023-11-19T06:00:55;1.90;;;1.80;;
2049;SDS011;8478;49.208;8.806;2023-11-19T06:03:21;1.90;;;1.70;;
2049;SDS011;8478;49.208;8.806;2023-11-19T06:05:47;2.03;;;1.93;;
2049;SDS011;8478;49.208;8.806;2023-11-19T06:08:14;1.90;;;1.80;;
2049;SDS011;8478;49.208;8.806;2023-11-19T06:10:43;1.83;;;1.73;;
2049;SDS011;8478;49.208;8.806;2023-11-19T06:13:11;1.63;;;1.53;;
2049;SDS011;8478;49.208;8.806;2023-11-19T06:15:37;1.77;;;1.60;;
2049;SDS011;8478;49.208;8.806;2023-11-19T06:18:03;1.83;;;1.73;;
2049;SDS011;8478;49.208;8.806;2023-11-19T06:20:29;1.67;;;1.57;;
2049;SDS011;8478;49.208;8.806;2023-11-19T06:22:56;1.90;;;1.80;;
2049;SDS011;8478;49.208;8.806;2023-11-19T06:25:22;1.83;;;1.73;;
2049;SDS011;8478;49.208;8.806;2023-11-19T06:27:49;1.80;;;1.70;;
2049;SDS011;8478;49.208;8.806;2023-11-19T06:30:15;2.43;;;1.90;;
2049;SDS011;8478;49.208;8.806;2023-11-19T06:32:41;1.70;;;1.60;;
2049;SDS011;8478;49.208;8.806;2023-11-19T06:35:07;1.60;;;1.50;;
2049;SDS011;8478;49.208;8.806;2023-11-19T06:37:34;1.80;;;1.70;;
2049;SDS011;8478;49.208;8.806;2023-11-19T06:40:09;1.90;;;1.80;;
2049;SDS011;8478;49.208;8.806;2023-11-19T06:42:35;1.67;;;1.57;;
2049;SDS011;8478;49.208;8.806;2023-11-19T06:45:01;1.90;;;1.80;;
2049;SDS011;8478;49.208;8.806;2023-11-19T06:47:28;2.30;;;1.33;;
2049;SDS011;8478;49.208;8.806;2023-11-19T06:49:54;1.53;;;1.43;;
2049;SDS011;8478;49.208;8.806;2023-11-19T06:52:20;1.57;;;1.47;;
2049;SDS011;8478;49.208;8.806;2023-11-19T06:54:46;1.63;;;1.53;;
2049;SDS011;8478;49.208;8.806;2023-11-19T06:57:12;1.70;;;1.60;;
2049;SDS011;8478;49.208;8.806;2023-11-19T06:59:38;1.60;;;1.50;;
2049;SDS011;8478;49.208;8.806;2023-11-19T07:02:04;2.03;;;1.40;;
2049;SDS011;8478;49.208;8.806;2023-11-19T07:04:30;1.67;;;1.40;;
2049;SDS011;8478;49.208;8.806;2023-11-19T07:06:56;1.50;;;1.40;;
2049;SDS011;8478;49.208;8.806;2023-11-19T07:09:22;1.40;;;1.30;;
2049;SDS011;8478;49.208;8.806;2023-11-19T07:11:48;1.77;;;1.50;;
2049;SDS011;8478;49.208;8.806;2023-11-19T07:14:16;1.67;;;1.30;;
2049;SDS011;8478;49.208;8.806;2023-11-19T07:16:42;1.50;;;1.40;;
2049;SDS011;8478;49.208;8.806;2023-11-19T07:19:08;1.40;;;1.30;;
2049;SDS011;8478;49.208;8.806;2023-11-19T07:21:34;1.80;;;1.70;;
2049;SDS011;8478;49.208;8.806;2023-11-19T07:24:02;2.03;;;1.50;;
2049;SDS011;8478;49.208;8.806;2023-11-19T07:26:28;1.50;;;1.40;;
2049;SDS011;8478;49.208;8.806;2023-11-19T07:28:54;1.67;;;1.57;;
2049;SDS011;8478;49.208;8.806;2023-11-19T07:31:20;1.50;;;1.40;;
2049;SDS011;8478;49.208;8.806;2023-11-19T07:33:46;2.13;;;1.70;;
2049;SDS011;8478;49.208;8.806;2023-11-19T07:36:15;1.67;;;1.30;;
2049;SDS011;8478;49.208;8.806;2023-11-19T07:38:41;1.47;;;1.37;;
2049;SDS011;8478;49.208;8.806;2023-11-19T07:41:07;1.80;;;1.40;;
2049;SDS011;8478;49.208;8.806;2023-11-19T07:43:38;1.53;;;1.43;;
2049;SDS011;8478;49.208;8.806;2023-11-19T07:46:10;1.53;;;1.20;;
2049;SDS011;8478;49.208;8.806;2023-11-19T07:48:38;1.47;;;1.37;;
2049;SDS011;8478;49.208;8.806;2023-11-19T07:51:04;1.53;;;1.43;;
2049;SDS011;8478;49.208;8.806;2023-11-19T07:53:30;1.83;;;1.73;;
2049;SDS011;8478;49.208;8.806;2023-11-19T07:55:55;1.27;;;1.10;;
2049;SDS011;8478;49.208;8.806;2023-11-19T07:58:21;1.57;;;1.47;;
2049;SDS011;8478;49.208;8.806;2023-11-19T08:00:47;1.50;;;1.40;;
2049;SDS011;8478;49.208;8.806;2023-11-19T08:03:12;1.83;;;1.60;;
2049;SDS011;8478;49.208;8.806;2023-11-19T08:05:38;1.83;;;1.33;;
2049;SDS011;8478;49.208;8.806;2023-11-19T08:08:04;2.27;;;1.60;;
2049;SDS011;8478;49.208;8.806;2023-11-19T08:10:30;1.63;;;1.53;;
2049;SDS011;8478;49.208;8.806;2023-11-19T08:12:55;1.63;;;1.53;;
2049;SDS011;8478;49.208;8.806;2023-11-19T08:15:21;1.43;;;1.33;;
2049;SDS011;8478;49.208;8.806;2023-11-19T08:17:47;2.17;;;1.70;;
2049;SDS011;8478;49.208;8.806;2023-11-19T08:20:12;1.70;;;1.60;;
2049;SDS011;8478;49.208;8.806;2023-11-19T08:22:38;2.30;;;1.60;;
2049;SDS011;8478;49.208;8.806;2023-11-19T08:25:07;1.57;;;1.30;;
2049;SDS011;8478;49.208;8.806;2023-11-19T08:27:33;1.30;;;1.20;;
2049;SDS011;8478;49.208;8.806;2023-11-19T08:29:59;1.60;;;1.50;;
2049;SDS011;8478;49.208;8.806;2023-11-19T08:32:25;1.60;;;1.40;;
2049;SDS011;8478;49.208;8.806;2023-11-19T08:34:51;1.90;;;1.33;;
2049;SDS011;8478;49.208;8.806;2023-11-19T08:37:17;1.37;;;1.27;;
2049;SDS011;8478;49.208;8.806;2023-11-19T08:39:48;1.57;;;1.47;;
2049;SDS011;8478;49.208;8.806;2023-11-19T08:42:14;1.43;;;1.33;;
2049;SDS011;8478;49.208;8.806;2023-11-19T08:44:41;1.40;;;1.30;;
2049;SDS011;8478;49.208;8.806;2023-11-19T08:47:12;2.03;;;1.40;;
2049;SDS011;8478;49.208;8.806;2023-11-19T08:49:38;1.60;;;1.50;;
2049;SDS011;8478;49.208;8.806;2023-11-19T08:52:04;1.50;;;1.40;;
2049;SDS011;8478;49.208;8.806;2023-11-19T08:54:32;1.87;;;1.50;;
2049;SDS011;8478;49.208;8.806;2023-11-19T08:56:58;1.37;;;1.27;;
2049;SDS011;8478;49.208;8.806;2023-11-19T08:59:24;1.40;;;1.30;;
2049;SDS011;8478;49.208;8.806;2023-11-19T09:01:50;1.70;;;1.57;;
2049;SDS011;8478;49.208;8.806;2023-11-19T09:04:16;1.70;;;1.60;;
2049;SDS011;8478;49.208;8.806;2023-11-19T09:06:41;1.70;;;1.60;;
2049;SDS011;8478;49.208;8.806;2023-11-19T09:09:08;1.40;;;1.30;;
2049;SDS011;8478;49.208;8.806;2023-11-19T09:11:34;3.30;;;1.50;;
2049;SDS011;8478;49.208;8.806;2023-11-19T09:14:00;3.13;;;1.63;;
2049;SDS011;8478;49.208;8.806;2023-11-19T09:16:26;1.70;;;1.60;;
2049;SDS011;8478;49.208;8.806;2023-11-19T09:18:51;1.60;;;1.50;;
2049;SDS011;8478;49.208;8.806;2023-11-19T09:21:17;1.40;;;1.30;;
2049;SDS011;8478;49.208;8.806;2023-11-19T09:23:42;1.60;;;1.50;;
2049;SDS011;8478;49.208;8.806;2023-11-19T09:26:08;1.70;;;1.60;;
2049;SDS011;8478;49.208;8.806;2023-11-19T09:28:37;1.60;;;1.50;;
2049;SDS011;8478;49.208;8.806;2023-11-19T09:31:12;1.70;;;1.60;;
2049;SDS011;8478;49.208;8.806;2023-11-19T09:33:41;1.60;;;1.50;;
2049;SDS011;8478;49.208;8.806;2023-11-19T09:36:07;1.70;;;1.40;;
2049;SDS011;8478;49.208;8.806;2023-11-19T09:38:33;1.50;;;1.40;;
2049;SDS011;8478;49.208;8.806;2023-11-19T09:41:03;1.70;;;1.60;;
2049;SDS011;8478;49.208;8.806;2023-11-19T09:43:33;1.60;;;1.50;;
2049;SDS011;8478;49.208;8.806;2023-11-19T09:46:03;3.17;;;1.50;;
2049;SDS011;8478;49.208;8.806;2023-11-19T09:48:35;1.57;;;1.47;;
2049;SDS011;8478;49.208;8.806;2023-11-19T09:51:05;1.93;;;1.47;;
2049;SDS011;8478;49.208;8.806;2023-11-19T09:53:32;1.67;;;1.43;;
2049;SDS011;8478;49.208;8.806;2023-11-19T09:55:59;1.60;;;1.50;;
2049;SDS011;8478;49.208;8.806;2023-11-19T09:58:28;2.07;;;1.60;;
2049;SDS011;8478;49.208;8.806;2023-11-19T10:00:55;2.00;;;1.90;;
2049;SDS011;8478;49.208;8.806;2023-11-19T10:03:23;2.17;;;1.60;;
2049;SDS011;8478;49.208;8.806;2023-11-19T10:05:52;1.80;;;1.70;;
2049;SDS011;8478;49.208;8.806;2023-11-19T10:08:19;1.80;;;1.70;;
2049;SDS011;8478;49.208;8.806;2023-11-19T10:10:45;1.80;;;1.70;;
2049;SDS011;8478;49.208;8.806;2023-11-19T10:13:11;2.07;;;1.80;;
2049;SDS011;8478;49.208;8.806;2023-11-19T10:15:39;1.73;;;1.63;;
2049;SDS011;8478;49.208;8.806;2023-11-19T10:18:04;1.60;;;1.50;;
2049;SDS011;8478;49.208;8.806;2023-11-19T10:20:37;1.90;;;1.80;;
2049;SDS011;8478;49.208;8.806;2023-11-19T10:23:05;1.70;;;1.60;;
2049;SDS011;8478;49.208;8.806;2023-11-19T10:25:31;1.77;;;1.50;;
2049;SDS011;8478;49.208;8.806;2023-11-19T10:27:59;2.40;;;1.67;;
2049;SDS011;8478;49.208;8.806;2023-11-19T10:30:29;1.53;;;1.43;;
2049;SDS011;8478;49.208;8.806;2023-11-19T10:35:36;1.50;;;1.40;;
2049;SDS011;8478;49.208;8.806;2023-11-19T10:38:19;2.20;;;2.00;;
2049;SDS011;8478;49.208;8.806;2023-11-19T10:40:47;1.70;;;1.57;;
2049;SDS011;8478;49.208;8.806;2023-11-19T10:43:13;2.10;;;1.80;;
2049;SDS011;8478;49.208;8.806;2023-11-19T10:45:39;1.60;;;1.50;;
2049;SDS011;8478;49.208;8.806;2023-11-19T10:48:06;1.80;;;1.70;;
2049;SDS011;8478;49.208;8.806;2023-11-19T10:50:35;1.90;;;1.80;;
2049;SDS011;8478;49.208;8.806;2023-11-19T10:53:03;1.90;;;1.80;;
2049;SDS011;8478;49.208;8.806;2023-11-19T10:55:33;3.77;;;1.70;;
2049;SDS011;8478;49.208;8.806;2023-11-19T10:58:09;1.60;;;1.50;;
2049;SDS011;8478;49.208;8.806;2023-11-19T11:00:41;2.53;;;1.87;;
2049;SDS011;8478;49.208;8.806;2023-11-19T11:03:24;1.67;;;1.57;;
2049;SDS011;8478;49.208;8.806;2023-11-19T11:05:51;1.70;;;1.60;;
2049;SDS011;8478;49.208;8.806;2023-11-19T11:08:18;2.27;;;1.73;;
2049;SDS011;8478;49.208;8.806;2023-11-19T11:10:54;2.00;;;1.80;;
2049;SDS011;8478;49.208;8.806;2023-11-19T11:13:22;1.70;;;1.60;;
2049;SDS011;8478;49.208;8.806;2023-11-19T11:15:57;2.10;;;2.00;;
2049;SDS011;8478;49.208;8.806;2023-11-19T11:18:23;1.70;;;1.57;;
2049;SDS011;8478;49.208;8.806;2023-11-19T11:21:03;2.30;;;2.07;;
2049;SDS011;8478;49.208;8.806;2023-11-19T11:23:36;2.33;;;1.97;;
2049;SDS011;8478;49.208;8.806;2023-11-19T11:37:18;2.30;;;2.00;;
2049;SDS011;8478;49.208;8.806;2023-11-19T11:40:03;1.70;;;1.60;;
2049;SDS011;8478;49.208;8.806;2023-11-19T11:42:38;2.13;;;1.70;;
2049;SDS011;8478;49.208;8.806;2023-11-19T11:50:11;2.07;;;1.87;;
2049;SDS011;8478;49.208;8.806;2023-11-19T11:57:51;1.90;;;1.80;;
2049;SDS011;8478;49.208;8.806;2023-11-19T12:03:02;1.90;;;1.70;;
2049;SDS011;8478;49.208;8.806;2023-11-19T12:05:31;1.97;;;1.87;;
2049;SDS011;8478;49.208;8.806;2023-11-19T12:08:05;1.90;;;1.80;;
2049;SDS011;8478;49.208;8.806;2023-11-19T12:10:33;1.77;;;1.67;;
2049;SDS011;8478;49.208;8.806;2023-11-19T12:13:15;2.10;;;1.90;;
2049;SDS011;8478;49.208;8.806;2023-11-19T12:18:23;2.27;;;2.07;;
2049;SDS011;8478;49.208;8.806;2023-11-19T12:20:49;2.43;;;2.23;;
2049;SDS011;8478;49.208;8.806;2023-11-19T12:23:15;2.40;;;1.90;;
2049;SDS011;8478;49.208;8.806;2023-11-19T12:25:41;2.83;;;2.10;;
2049;SDS011;8478;49.208;8.806;2023-11-19T12:28:11;2.87;;;1.90;;
2049;SDS011;8478;49.208;8.806;2023-11-19T12:30:38;2.30;;;2.10;;
2049;SDS011;8478;49.208;8.806;2023-11-19T12:33:10;2.60;;;2.07;;
2049;SDS011;8478;49.208;8.806;2023-11-19T12:35:40;2.60;;;2.00;;
2049;SDS011;8478;49.208;8.806;2023-11-19T12:38:06;4.00;;;2.10;;
2049;SDS011;8478;49.208;8.806;2023-11-19T12:40:32;2.13;;;2.00;;
2049;SDS011;8478;49.208;8.806;2023-11-19T12:42:58;2.10;;;1.90;;
2049;SDS011;8478;49.208;8.806;2023-11-19T12:45:33;2.60;;;2.43;;
2049;SDS011;8478;49.208;8.806;2023-11-19T12:48:04;2.90;;;2.63;;
2049;SDS011;8478;49.208;8.806;2023-11-19T12:50:31;3.53;;;2.30;;
2049;SDS011;8478;49.208;8.806;2023-11-19T12:53:19;2.40;;;2.20;;
2049;SDS011;8478;49.208;8.806;2023-11-19T12:55:46;2.43;;;2.23;;
2049;SDS011;8478;49.208;8.806;2023-11-19T12:58:33;2.80;;;2.00;;
2049;SDS011;8478;49.208;8.806;2023-11-19T13:00:59;3.30;;;2.80;;
2049;SDS011;8478;49.208;8.806;2023-11-19T13:03:29;2.43;;;2.23;;
2049;SDS011;8478;49.208;8.806;2023-11-19T13:06:01;2.37;;;2.17;;
2049;SDS011;8478;49.208;8.806;2023-11-19T13:08:40;3.93;;;2.13;;
2049;SDS011;8478;49.208;8.806;2023-11-19T13:11:08;3.83;;;2.80;;
2049;SDS011;8478;49.208;8.806;2023-11-19T13:13:53;2.40;;;2.30;;
2049;SDS011;8478;49.208;8.806;2023-11-19T13:16:23;3.00;;;2.70;;
2049;SDS011;8478;49.208;8.806;2023-11-19T13:18:49;2.40;;;2.23;;
2049;SDS011;8478;49.208;8.806;2023-11-19T13:21:15;2.30;;;2.10;;
2049;SDS011;8478;49.208;8.806;2023-11-19T13:23:40;3.30;;;2.73;;
2049;SDS011;8478;49.208;8.806;2023-11-19T13:26:06;3.23;;;2.57;;
2049;SDS011;8478;49.208;8.806;2023-11-19T13:28:32;2.47;;;2.27;;
2049;SDS011;8478;49.208;8.806;2023-11-19T13:30:58;2.83;;;1.90;;
2049;SDS011;8478;49.208;8.806;2023-11-19T13:33:23;2.40;;;2.20;;
2049;SDS011;8478;49.208;8.806;2023-11-19T13:35:49;2.57;;;2.37;;
2049;SDS011;8478;49.208;8.806;2023-11-19T13:38:15;2.47;;;2.27;;
2049;SDS011;8478;49.208;8.806;2023-11-19T13:40:40;2.13;;;2.03;;
2049;SDS011;8478;49.208;8.806;2023-11-19T13:43:06;2.67;;;2.03;;
2049;SDS011;8478;49.208;8.806;2023-11-19T13:45:32;2.50;;;2.17;;
2049;SDS011;8478;49.208;8.806;2023-11-19T13:47:58;3.70;;;2.60;;
2049;SDS011;8478;49.208;8.806;2023-11-19T13:50:23;3.40;;;2.30;;
2049;SDS011;8478;49.208;8.806;2023-11-19T13:52:49;2.70;;;2.30;;
2049;SDS011;8478;49.208;8.806;2023-11-19T13:55:15;2.17;;;2.00;;
2049;SDS011;8478;49.208;8.806;2023-11-19T13:57:41;2.40;;;1.97;;
2049;SDS011;8478;49.208;8.806;2023-11-19T14:00:08;2.63;;;2.10;;
2049;SDS011;8478;49.208;8.806;2023-11-19T14:02:41;3.50;;;2.27;;
2049;SDS011;8478;49.208;8.806;2023-11-19T14:05:12;5.30;;;2.33;;
2049;SDS011;8478;49.208;8.806;2023-11-19T14:07:39;2.20;;;2.10;;
2049;SDS011;8478;49.208;8.806;2023-11-19T14:10:05;2.67;;;2.40;;
2049;SDS011;8478;49.208;8.806;2023-11-19T14:12:32;3.10;;;2.80;;
2049;SDS011;8478;49.208;8.806;2023-11-19T14:14:58;2.40;;;2.07;;
2049;SDS011;8478;49.208;8.806;2023-11-19T14:17:25;2.67;;;2.23;;
2049;SDS011;8478;49.208;8.806;2023-11-19T14:19:51;3.23;;;2.40;;
2049;SDS011;8478;49.208;8.806;2023-11-19T14:22:16;2.50;;;2.03;;
2049;SDS011;8478;49.208;8.806;2023-11-19T14:24:42;2.30;;;2.13;;
2049;SDS011;8478;49.208;8.806;2023-11-19T14:27:08;3.23;;;2.40;;
2049;SDS011;8478;49.208;8.806;2023-11-19T14:29:35;2.53;;;1.90;;
2049;SDS011;8478;49.208;8.806;2023-11-19T14:32:01;2.70;;;2.20;;
2049;SDS011;8478;49.208;8.806;2023-11-19T14:34:31;2.20;;;1.97;;
2049;SDS011;8478;49.208;8.806;2023-11-19T14:36:57;2.37;;;2.17;;
2049;SDS011;8478;49.208;8.806;2023-11-19T14:39:23;3.10;;;2.20;;
2049;SDS011;8478;49.208;8.806;2023-11-19T14:41:49;2.67;;;2.20;;
2049;SDS011;8478;49.208;8.806;2023-11-19T14:44:16;2.50;;;2.30;;
2049;SDS011;8478;49.208;8.806;2023-11-19T14:46:43;4.27;;;2.50;;
2049;SDS011;8478;49.208;8.806;2023-11-19T14:49:09;2.40;;;2.20;;
2049;SDS011;8478;49.208;8.806;2023-11-19T14:51:37;9.37;;;3.37;;
2049;SDS011;8478;49.208;8.806;2023-11-19T14:54:04;5.67;;;2.43;;
2049;SDS011;8478;49.208;8.806;2023-11-19T14:56:30;3.10;;;2.80;;
2049;SDS011;8478;49.208;8.806;2023-11-19T14:58:56;7.10;;;2.90;;
2049;SDS011;8478;49.208;8.806;2023-11-19T15:01:22;3.30;;;2.80;;
2049;SDS011;8478;49.208;8.806;2023-11-19T15:03:47;2.90;;;2.57;;
2049;SDS011;8478;49.208;8.806;2023-11-19T15:06:13;3.60;;;3.00;;
2049;SDS011;8478;49.208;8.806;2023-11-19T15:08:40;3.07;;;2.77;;
2049;SDS011;8478;49.208;8.806;2023-11-19T15:11:06;3.50;;;2.53;;
2049;SDS011;8478;49.208;8.806;2023-11-19T15:13:34;18.73;;;4.37;;
2049;SDS011;8478;49.208;8.806;2023-11-19T15:16:02;13.17;;;3.70;;
2049;SDS011;8478;49.208;8.806;2023-11-19T15:18:30;8.67;;;3.97;;
2049;SDS011;8478;49.208;8.806;2023-11-19T15:20:56;8.53;;;3.13;;
2049;SDS011;8478;49.208;8.806;2023-11-19T15:23:22;14.40;;;3.83;;
2049;SDS011;8478;49.208;8.806;2023-11-19T15:25:48;8.77;;;3.70;;
2049;SDS011;8478;49.208;8.806;2023-11-19T15:28:14;8.30;;;4.10;;
2049;SDS011;8478;49.208;8.806;2023-11-19T15:30:40;5.40;;;3.40;;
2049;SDS011;8478;49.208;8.806;2023-11-19T15:33:06;6.33;;;3.03;;
2049;SDS011;8478;49.208;8.806;2023-11-19T15:35:34;7.30;;;3.20;;
2049;SDS011;8478;49.208;8.806;2023-11-19T15:38:00;6.80;;;3.07;;
2049;SDS011;8478;49.208;8.806;2023-11-19T15:40:26;4.00;;;2.67;;
2049;SDS011;8478;49.208;8.806;2023-11-19T15:42:52;4.10;;;3.00;;
2049;SDS011;8478;49.208;8.806;2023-11-19T15:45:20;7.40;;;3.30;;
2049;SDS011;8478;49.208;8.806;2023-11-19T15:47:45;3.53;;;2.73;;